Time;durP1;ratioP1;P1;durP2;ratioP2;P2;SDS_P1;SDS_P2;PMS_P1;PMS_P2;Temp;Humidity;BMP_temperature;BMP_pressure;BME280_temperature;BME280_humidity;BME280_pressure;Samples;Min_cycle;Max_cycle;Signal;HPM_P1;HPM_P2
2023/01/21 09:57:41;;;;;;;24.50;12.67;;;-3.50;99.90;;;;;;5139819;27;20282;-78
2023/01/21 10:06:44;;;;;;;22.13;12.27;;;-3.40;99.90;;;;;;5143634;27;20265;-78
2023/01/21 10:28:20;;;;;;;21.27;11.97;;;-3.20;99.90;;;;;;5138295;27;20277;-79
2023/01/21 10:34:27;;;;;;;23.03;11.33;;;-3.00;99.90;;;;;;5135915;27;20275;-79
2023/01/21 10:38:18;;;;;;;22.70;12.67;;;-2.90;99.90;;;;;;5136458;27;20277;-79
2023/01/21 10:42:08;;;;;;;22.60;13.00;;;-2.80;99.90;;;;;;5115876;27;20536;-79
2023/01/21 10:46:02;;;;;;;19.63;10.87;;;-2.70;99.90;;;;;;5135656;27;20642;-79
2023/01/21 10:50:13;;;;;;;18.67;11.50;;;-2.70;99.90;;;;;;5135440;27;20294;-79
2023/01/21 10:53:48;;;;;;;16.17;10.17;;;-2.70;99.90;;;;;;5135831;27;20784;-80
2023/01/21 10:56:28;;;;;;;22.47;12.37;;;-2.60;99.90;;;;;;5134977;28;20890;-79
2023/01/21 10:59:09;;;;;;;33.03;19.20;;;-2.50;99.90;;;;;;5116655;28;20420;-79
2023/01/21 11:01:39;;;;;;;18.90;12.33;;;-2.40;99.90;;;;;;5136420;28;20408;-80
2023/01/21 11:04:13;;;;;;;33.37;19.20;;;-2.10;99.90;;;;;;5139810;28;20476;-80
2023/01/21 11:06:39;;;;;;;26.27;15.13;;;-2.30;99.90;;;;;;5142001;27;20412;-80
2023/01/21 11:09:09;;;;;;;21.40;12.77;;;-2.40;99.90;;;;;;5137973;28;20412;-80
2023/01/21 11:11:36;;;;;;;18.43;11.73;;;-2.50;99.90;;;;;;5134705;28;20448;-80
2023/01/21 11:14:02;;;;;;;57.97;31.63;;;-2.40;99.90;;;;;;5134942;28;20459;-80
2023/01/21 11:16:33;;;;;;;23.63;13.90;;;-2.60;99.90;;;;;;5134673;28;20441;-80
2023/01/21 11:18:58;;;;;;;22.13;13.37;;;-2.60;99.90;;;;;;5134500;28;20186;-80
2023/01/21 11:21:25;;;;;;;18.10;10.33;;;-2.70;99.90;;;;;;5136693;28;20425;-80
2023/01/21 11:23:55;;;;;;;18.37;12.27;;;-2.70;99.90;;;;;;5137185;28;20205;-79
2023/01/21 11:26:27;;;;;;;22.23;12.67;;;-2.70;99.90;;;;;;5123007;27;20436;-81
2023/01/21 11:29:13;;;;;;;20.60;11.87;;;-2.60;99.90;;;;;;5113465;28;20457;-82
2023/01/21 11:31:43;;;;;;;21.63;12.93;;;-2.40;99.90;;;;;;5115480;28;20535;-81
2023/01/21 11:34:14;;;;;;;18.47;11.70;;;-2.40;99.90;;;;;;5117635;28;20416;-82
2023/01/21 11:37:00;;;;;;;22.20;12.23;;;-2.30;99.90;;;;;;5116825;28;20417;-81
2023/01/21 11:39:35;;;;;;;22.00;11.70;;;-2.20;99.90;;;;;;5120339;28;20901;-81
2023/01/21 11:42:14;;;;;;;21.97;12.93;;;-2.20;99.90;;;;;;5138465;27;20428;-81
2023/01/21 11:45:28;;;;;;;23.07;12.30;;;-2.30;99.90;;;;;;5122237;27;20441;-84
2023/01/21 11:47:55;;;;;;;26.27;13.87;;;-2.30;99.90;;;;;;5126341;28;20424;-84
2023/01/21 11:50:33;;;;;;;22.77;13.87;;;-2.30;99.90;;;;;;5135012;27;20517;-84
2023/01/21 11:53:12;;;;;;;18.33;11.43;;;-2.40;99.90;;;;;;5134716;28;20467;-83
2023/01/21 11:55:58;;;;;;;23.83;12.73;;;-2.40;99.90;;;;;;5135315;27;20403;-84
2023/01/21 11:58:28;;;;;;;22.37;11.93;;;-2.40;99.90;;;;;;5134627;28;20773;-83
2023/01/21 12:01:00;;;;;;;18.60;11.47;;;-2.30;99.90;;;;;;5132857;28;20434;-82
2023/01/21 12:03:36;;;;;;;20.97;12.97;;;-2.30;99.90;;;;;;5111056;28;20760;-83
2023/01/21 12:06:02;;;;;;;22.57;11.90;;;-2.20;99.90;;;;;;5108897;28;20424;-85
2023/01/21 12:08:31;;;;;;;21.00;11.80;;;-2.00;99.90;;;;;;5108093;28;20947;-85
2023/01/21 12:11:02;;;;;;;19.87;11.57;;;-2.00;99.90;;;;;;5105542;28;20446;-86
2023/01/21 12:13:34;;;;;;;19.90;12.17;;;-2.10;99.90;;;;;;5109695;28;20441;-85
2023/01/21 12:16:31;;;;;;;14.90;9.87;;;-2.20;99.90;;;;;;5117030;28;20433;-84
2023/01/21 12:19:24;;;;;;;20.03;11.33;;;-2.30;99.90;;;;;;5134496;28;20417;-84
2023/01/21 12:22:07;;;;;;;15.33;9.63;;;-2.30;99.90;;;;;;5119154;28;20446;-84
2023/01/21 12:24:57;;;;;;;17.33;10.37;;;-2.40;99.90;;;;;;5130062;27;20442;-82
2023/01/21 12:27:58;;;;;;;16.97;10.50;;;-2.40;99.90;;;;;;5141450;27;20448;-82
2023/01/21 12:30:41;;;;;;;22.77;11.43;;;-2.50;99.90;;;;;;5096688;27;20471;-84
2023/01/21 12:33:07;;;;;;;17.90;11.10;;;-2.50;99.90;;;;;;5111687;27;20465;-84
2023/01/21 12:35:39;;;;;;;18.87;11.17;;;-2.40;99.90;;;;;;5120185;28;20414;-85
2023/01/21 12:38:39;;;;;;;19.30;12.27;;;-2.20;99.90;;;;;;5121970;28;20267;-84
2023/01/21 12:41:15;;;;;;;21.33;11.40;;;-2.00;99.90;;;;;;5089209;28;20801;-84
2023/01/21 12:43:44;;;;;;;18.43;11.27;;;-1.90;99.90;;;;;;5123178;28;20389;-83
2023/01/21 12:46:33;;;;;;;18.70;10.80;;;-2.00;99.90;;;;;;5123561;28;20417;-81
2023/01/21 12:49:15;;;;;;;20.87;10.40;;;-2.00;99.90;;;;;;5104467;28;20434;-84
2023/01/21 12:51:45;;;;;;;15.63;10.10;;;-2.10;99.90;;;;;;5116400;28;20517;-83
2023/01/21 12:54:26;;;;;;;16.00;9.73;;;-2.20;99.90;;;;;;5120110;28;20422;-83
2023/01/21 12:56:57;;;;;;;19.60;11.27;;;-2.30;99.90;;;;;;5121015;28;20756;-83
2023/01/21 12:59:38;;;;;;;19.87;9.83;;;-2.30;99.90;;;;;;5119884;28;20445;-83
2023/01/21 13:02:37;;;;;;;15.80;10.07;;;-2.30;99.90;;;;;;5118247;28;20446;-83
2023/01/21 13:05:14;;;;;;;17.27;10.30;;;-2.30;99.90;;;;;;5115503;28;20429;-83
2023/01/21 13:10:00;;;;;;;18.37;10.20;;;-2.20;99.90;;;;;;5075967;28;20513;-84
2023/01/21 13:13:51;;;;;;;23.13;10.50;;;-2.20;99.90;;;;;;5138859;27;20278;-83
